sensor_id;sensor_type;location;lat;lon;timestamp;P1;durP1;ratioP1;P2;durP2;ratioP2
29240;SDS011;16268;49.880;8.648;2023-05-20T00:00:21;7.68;;;2.63;;
29240;SDS011;16268;49.880;8.648;2023-05-20T00:02:47;7.28;;;2.30;;
29240;SDS011;16268;49.880;8.648;2023-05-20T00:05:13;4.90;;;2.42;;
29240;SDS011;16268;49.880;8.648;2023-05-20T00:07:39;4.30;;;2.35;;
29240;SDS011;16268;49.880;8.648;2023-05-20T00:10:05;6.57;;;2.50;;
29240;SDS011;16268;49.880;8.648;2023-05-20T00:12:31;6.38;;;2.30;;
29240;SDS011;16268;49.880;8.648;2023-05-20T00:14:56;5.97;;;2.35;;
29240;SDS011;16268;49.880;8.648;2023-05-20T00:17:22;5.07;;;2.45;;
29240;SDS011;16268;49.880;8.648;2023-05-20T00:19:49;4.55;;;2.42;;
29240;SDS011;16268;49.880;8.648;2023-05-20T00:22:15;7.00;;;2.10;;
29240;SDS011;16268;49.880;8.648;2023-05-20T00:24:40;4.85;;;2.38;;
29240;SDS011;16268;49.880;8.648;2023-05-20T00:27:06;4.85;;;2.30;;
29240;SDS011;16268;49.880;8.648;2023-05-20T00:29:32;5.80;;;2.65;;
29240;SDS011;16268;49.880;8.648;2023-05-20T00:31:57;5.53;;;2.30;;
29240;SDS011;16268;49.880;8.648;2023-05-20T00:34:23;5.88;;;2.45;;
29240;SDS011;16268;49.880;8.648;2023-05-20T00:36:48;6.50;;;2.88;;
29240;SDS011;16268;49.880;8.648;2023-05-20T00:39:15;6.15;;;2.58;;
29240;SDS011;16268;49.880;8.648;2023-05-20T00:41:40;4.65;;;2.42;;
29240;SDS011;16268;49.880;8.648;2023-05-20T00:44:06;4.45;;;1.95;;
29240;SDS011;16268;49.880;8.648;2023-05-20T00:46:32;6.05;;;2.00;;
29240;SDS011;16268;49.880;8.648;2023-05-20T00:48:57;4.85;;;2.40;;
29240;SDS011;16268;49.880;8.648;2023-05-20T00:51:23;6.53;;;2.17;;
29240;SDS011;16268;49.880;8.648;2023-05-20T00:53:49;6.13;;;2.13;;
29240;SDS011;16268;49.880;8.648;2023-05-20T00:56:16;5.70;;;2.50;;
29240;SDS011;16268;49.880;8.648;2023-05-20T00:58:42;6.53;;;2.17;;
29240;SDS011;16268;49.880;8.648;2023-05-20T01:01:08;5.45;;;2.60;;
29240;SDS011;16268;49.880;8.648;2023-05-20T01:03:33;5.53;;;2.10;;
29240;SDS011;16268;49.880;8.648;2023-05-20T01:05:59;5.20;;;2.10;;
29240;SDS011;16268;49.880;8.648;2023-05-20T01:08:25;4.93;;;2.33;;
29240;SDS011;16268;49.880;8.648;2023-05-20T01:10:55;7.40;;;2.35;;
29240;SDS011;16268;49.880;8.648;2023-05-20T01:16:49;4.28;;;2.13;;
29240;SDS011;16268;49.880;8.648;2023-05-20T01:19:26;4.68;;;2.40;;
29240;SDS011;16268;49.880;8.648;2023-05-20T01:21:59;6.00;;;2.47;;
29240;SDS011;16268;49.880;8.648;2023-05-20T01:24:29;6.53;;;2.45;;
29240;SDS011;16268;49.880;8.648;2023-05-20T01:26:54;5.53;;;2.50;;
29240;SDS011;16268;49.880;8.648;2023-05-20T01:29:22;4.68;;;2.28;;
29240;SDS011;16268;49.880;8.648;2023-05-20T01:31:48;4.93;;;2.40;;
29240;SDS011;16268;49.880;8.648;2023-05-20T01:34:15;5.80;;;2.53;;
29240;SDS011;16268;49.880;8.648;2023-05-20T01:36:41;5.13;;;2.53;;
29240;SDS011;16268;49.880;8.648;2023-05-20T01:39:10;4.95;;;2.55;;
29240;SDS011;16268;49.880;8.648;2023-05-20T01:41:36;5.35;;;2.75;;
29240;SDS011;16268;49.880;8.648;2023-05-20T01:44:03;6.55;;;2.45;;
29240;SDS011;16268;49.880;8.648;2023-05-20T01:46:31;5.50;;;2.60;;
29240;SDS011;16268;49.880;8.648;2023-05-20T01:48:58;5.97;;;2.78;;
29240;SDS011;16268;49.880;8.648;2023-05-20T01:51:23;6.93;;;2.88;;
29240;SDS011;16268;49.880;8.648;2023-05-20T01:53:49;5.85;;;2.63;;
29240;SDS011;16268;49.880;8.648;2023-05-20T01:56:15;7.72;;;2.92;;
29240;SDS011;16268;49.880;8.648;2023-05-20T01:58:40;11.48;;;2.75;;
29240;SDS011;16268;49.880;8.648;2023-05-20T02:01:06;5.78;;;2.70;;
29240;SDS011;16268;49.880;8.648;2023-05-20T02:03:31;4.95;;;2.67;;
29240;SDS011;16268;49.880;8.648;2023-05-20T02:05:57;5.07;;;3.00;;
29240;SDS011;16268;49.880;8.648;2023-05-20T02:08:23;5.32;;;2.72;;
29240;SDS011;16268;49.880;8.648;2023-05-20T02:10:48;6.03;;;2.70;;
29240;SDS011;16268;49.880;8.648;2023-05-20T02:13:14;5.15;;;2.65;;
29240;SDS011;16268;49.880;8.648;2023-05-20T02:15:40;8.32;;;2.75;;
29240;SDS011;16268;49.880;8.648;2023-05-20T02:18:06;5.40;;;3.00;;
29240;SDS011;16268;49.880;8.648;2023-05-20T02:20:34;5.60;;;2.58;;
29240;SDS011;16268;49.880;8.648;2023-05-20T02:23:00;8.68;;;3.15;;
29240;SDS011;16268;49.880;8.648;2023-05-20T02:25:26;8.43;;;2.97;;
29240;SDS011;16268;49.880;8.648;2023-05-20T02:27:52;5.70;;;2.63;;
29240;SDS011;16268;49.880;8.648;2023-05-20T02:30:18;7.47;;;3.10;;
29240;SDS011;16268;49.880;8.648;2023-05-20T02:32:43;9.20;;;2.92;;
29240;SDS011;16268;49.880;8.648;2023-05-20T02:35:09;7.50;;;2.90;;
29240;SDS011;16268;49.880;8.648;2023-05-20T02:37:34;5.40;;;2.75;;
29240;SDS011;16268;49.880;8.648;2023-05-20T02:40:00;6.40;;;2.92;;
29240;SDS011;16268;49.880;8.648;2023-05-20T02:42:25;7.40;;;3.03;;
29240;SDS011;16268;49.880;8.648;2023-05-20T02:44:51;4.93;;;2.80;;
29240;SDS011;16268;49.880;8.648;2023-05-20T02:47:20;8.07;;;3.00;;
29240;SDS011;16268;49.880;8.648;2023-05-20T02:49:45;6.97;;;3.10;;
29240;SDS011;16268;49.880;8.648;2023-05-20T02:52:11;5.65;;;2.90;;
29240;SDS011;16268;49.880;8.648;2023-05-20T02:54:37;5.53;;;2.65;;
29240;SDS011;16268;49.880;8.648;2023-05-20T02:57:02;6.85;;;3.42;;
29240;SDS011;16268;49.880;8.648;2023-05-20T02:59:28;5.85;;;3.20;;
29240;SDS011;16268;49.880;8.648;2023-05-20T03:01:53;7.03;;;3.38;;
29240;SDS011;16268;49.880;8.648;2023-05-20T03:04:19;7.10;;;2.75;;
29240;SDS011;16268;49.880;8.648;2023-05-20T03:06:45;5.88;;;3.05;;
29240;SDS011;16268;49.880;8.648;2023-05-20T03:09:11;5.68;;;3.10;;
29240;SDS011;16268;49.880;8.648;2023-05-20T03:11:38;6.20;;;3.22;;
29240;SDS011;16268;49.880;8.648;2023-05-20T03:14:03;6.07;;;3.30;;
29240;SDS011;16268;49.880;8.648;2023-05-20T03:16:29;6.93;;;3.05;;
29240;SDS011;16268;49.880;8.648;2023-05-20T03:18:55;5.93;;;3.17;;
29240;SDS011;16268;49.880;8.648;2023-05-20T03:21:20;6.55;;;3.67;;
29240;SDS011;16268;49.880;8.648;2023-05-20T03:23:47;6.22;;;3.17;;
29240;SDS011;16268;49.880;8.648;2023-05-20T03:26:13;6.18;;;3.45;;
29240;SDS011;16268;49.880;8.648;2023-05-20T03:28:39;6.07;;;2.95;;
29240;SDS011;16268;49.880;8.648;2023-05-20T03:31:04;7.82;;;3.60;;
29240;SDS011;16268;49.880;8.648;2023-05-20T03:33:32;7.90;;;3.00;;
29240;SDS011;16268;49.880;8.648;2023-05-20T03:35:58;10.00;;;3.50;;
29240;SDS011;16268;49.880;8.648;2023-05-20T03:38:24;7.43;;;3.15;;
29240;SDS011;16268;49.880;8.648;2023-05-20T03:40:50;7.43;;;3.35;;
29240;SDS011;16268;49.880;8.648;2023-05-20T03:43:16;6.47;;;3.67;;
29240;SDS011;16268;49.880;8.648;2023-05-20T03:45:42;4.90;;;2.95;;
29240;SDS011;16268;49.880;8.648;2023-05-20T03:48:07;10.30;;;3.70;;
29240;SDS011;16268;49.880;8.648;2023-05-20T03:50:33;6.55;;;3.35;;
29240;SDS011;16268;49.880;8.648;2023-05-20T03:52:58;7.63;;;4.22;;
29240;SDS011;16268;49.880;8.648;2023-05-20T03:55:24;7.82;;;4.43;;
29240;SDS011;16268;49.880;8.648;2023-05-20T03:57:49;8.52;;;4.25;;
29240;SDS011;16268;49.880;8.648;2023-05-20T04:00:16;7.03;;;3.95;;
29240;SDS011;16268;49.880;8.648;2023-05-20T04:02:42;8.35;;;4.00;;
29240;SDS011;16268;49.880;8.648;2023-05-20T04:05:08;6.80;;;3.60;;
29240;SDS011;16268;49.880;8.648;2023-05-20T04:07:34;7.97;;;3.47;;
29240;SDS011;16268;49.880;8.648;2023-05-20T04:10:00;10.63;;;3.80;;
29240;SDS011;16268;49.880;8.648;2023-05-20T04:12:26;8.43;;;3.60;;
29240;SDS011;16268;49.880;8.648;2023-05-20T04:14:55;5.95;;;3.22;;
29240;SDS011;16268;49.880;8.648;2023-05-20T04:17:22;8.35;;;3.78;;
29240;SDS011;16268;49.880;8.648;2023-05-20T04:19:48;7.10;;;3.80;;
29240;SDS011;16268;49.880;8.648;2023-05-20T04:22:13;7.97;;;3.38;;
29240;SDS011;16268;49.880;8.648;2023-05-20T04:24:39;7.22;;;3.17;;
29240;SDS011;16268;49.880;8.648;2023-05-20T04:27:04;7.30;;;3.28;;
29240;SDS011;16268;49.880;8.648;2023-05-20T04:29:30;7.90;;;3.97;;
29240;SDS011;16268;49.880;8.648;2023-05-20T04:31:58;7.03;;;3.55;;
29240;SDS011;16268;49.880;8.648;2023-05-20T04:34:27;8.75;;;3.72;;
29240;SDS011;16268;49.880;8.648;2023-05-20T04:36:53;8.18;;;3.70;;
29240;SDS011;16268;49.880;8.648;2023-05-20T04:39:19;6.63;;;3.25;;
29240;SDS011;16268;49.880;8.648;2023-05-20T04:41:44;8.68;;;3.75;;
29240;SDS011;16268;49.880;8.648;2023-05-20T04:44:12;8.70;;;3.40;;
29240;SDS011;16268;49.880;8.648;2023-05-20T04:46:37;6.13;;;3.60;;
29240;SDS011;16268;49.880;8.648;2023-05-20T04:49:03;7.53;;;3.47;;
29240;SDS011;16268;49.880;8.648;2023-05-20T04:51:29;6.28;;;3.50;;
29240;SDS011;16268;49.880;8.648;2023-05-20T04:53:55;6.28;;;3.60;;
29240;SDS011;16268;49.880;8.648;2023-05-20T04:56:20;7.80;;;3.50;;
29240;SDS011;16268;49.880;8.648;2023-05-20T04:58:46;7.40;;;3.55;;
29240;SDS011;16268;49.880;8.648;2023-05-20T05:01:12;5.88;;;3.42;;
29240;SDS011;16268;49.880;8.648;2023-05-20T05:03:37;5.88;;;3.13;;
29240;SDS011;16268;49.880;8.648;2023-05-20T05:06:03;7.88;;;3.65;;
29240;SDS011;16268;49.880;8.648;2023-05-20T05:08:28;5.93;;;3.20;;
29240;SDS011;16268;49.880;8.648;2023-05-20T05:10:54;4.95;;;3.03;;
29240;SDS011;16268;49.880;8.648;2023-05-20T05:13:19;8.07;;;3.45;;
29240;SDS011;16268;49.880;8.648;2023-05-20T05:15:45;8.13;;;3.25;;
29240;SDS011;16268;49.880;8.648;2023-05-20T05:18:10;9.07;;;3.25;;
29240;SDS011;16268;49.880;8.648;2023-05-20T05:20:36;5.90;;;3.08;;
29240;SDS011;16268;49.880;8.648;2023-05-20T05:23:02;8.77;;;3.45;;
29240;SDS011;16268;49.880;8.648;2023-05-20T05:25:27;5.97;;;3.25;;
29240;SDS011;16268;49.880;8.648;2023-05-20T05:27:53;6.15;;;3.15;;
29240;SDS011;16268;49.880;8.648;2023-05-20T05:30:19;7.50;;;3.42;;
29240;SDS011;16268;49.880;8.648;2023-05-20T05:32:47;6.65;;;3.15;;
29240;SDS011;16268;49.880;8.648;2023-05-20T05:35:13;6.18;;;3.55;;
29240;SDS011;16268;49.880;8.648;2023-05-20T05:37:39;6.70;;;3.53;;
29240;SDS011;16268;49.880;8.648;2023-05-20T05:40:05;5.90;;;3.15;;
29240;SDS011;16268;49.880;8.648;2023-05-20T05:42:32;6.43;;;3.30;;
29240;SDS011;16268;49.880;8.648;2023-05-20T05:44:57;6.22;;;3.50;;
29240;SDS011;16268;49.880;8.648;2023-05-20T05:47:23;6.47;;;2.97;;
29240;SDS011;16268;49.880;8.648;2023-05-20T05:49:53;6.20;;;3.10;;
29240;SDS011;16268;49.880;8.648;2023-05-20T05:52:19;5.43;;;3.20;;
29240;SDS011;16268;49.880;8.648;2023-05-20T05:54:44;6.97;;;3.45;;
29240;SDS011;16268;49.880;8.648;2023-05-20T05:57:10;5.70;;;3.47;;
29240;SDS011;16268;49.880;8.648;2023-05-20T05:59:35;6.00;;;3.20;;
29240;SDS011;16268;49.880;8.648;2023-05-20T06:02:01;6.90;;;3.53;;
29240;SDS011;16268;49.880;8.648;2023-05-20T06:04:27;6.00;;;3.50;;
29240;SDS011;16268;49.880;8.648;2023-05-20T06:06:52;5.63;;;3.50;;
29240;SDS011;16268;49.880;8.648;2023-05-20T06:09:18;6.57;;;3.40;;
29240;SDS011;16268;49.880;8.648;2023-05-20T06:11:43;6.78;;;3.58;;
29240;SDS011;16268;49.880;8.648;2023-05-20T06:14:09;5.53;;;3.60;;
29240;SDS011;16268;49.880;8.648;2023-05-20T06:16:34;7.50;;;3.80;;
29240;SDS011;16268;49.880;8.648;2023-05-20T06:19:00;7.55;;;3.40;;
29240;SDS011;16268;49.880;8.648;2023-05-20T06:21:26;7.28;;;3.70;;
29240;SDS011;16268;49.880;8.648;2023-05-20T06:23:51;7.47;;;3.88;;
29240;SDS011;16268;49.880;8.648;2023-05-20T06:26:17;5.18;;;3.60;;
29240;SDS011;16268;49.880;8.648;2023-05-20T06:28:42;7.03;;;3.78;;
29240;SDS011;16268;49.880;8.648;2023-05-20T06:31:08;5.82;;;3.40;;
29240;SDS011;16268;49.880;8.648;2023-05-20T06:33:33;7.32;;;3.92;;
29240;SDS011;16268;49.880;8.648;2023-05-20T06:35:59;7.40;;;4.18;;
29240;SDS011;16268;49.880;8.648;2023-05-20T06:38:25;8.55;;;3.78;;
29240;SDS011;16268;49.880;8.648;2023-05-20T06:40:51;6.82;;;3.50;;
29240;SDS011;16268;49.880;8.648;2023-05-20T06:43:17;6.68;;;3.75;;
29240;SDS011;16268;49.880;8.648;2023-05-20T06:45:43;5.78;;;3.78;;
29240;SDS011;16268;49.880;8.648;2023-05-20T06:48:09;7.25;;;3.88;;
29240;SDS011;16268;49.880;8.648;2023-05-20T06:50:35;7.53;;;3.90;;
29240;SDS011;16268;49.880;8.648;2023-05-20T06:53:00;6.63;;;4.00;;
29240;SDS011;16268;49.880;8.648;2023-05-20T06:55:26;6.72;;;3.80;;
29240;SDS011;16268;49.880;8.648;2023-05-20T06:57:52;6.32;;;4.10;;
29240;SDS011;16268;49.880;8.648;2023-05-20T07:00:17;6.20;;;3.92;;
29240;SDS011;16268;49.880;8.648;2023-05-20T07:02:43;6.43;;;4.00;;
29240;SDS011;16268;49.880;8.648;2023-05-20T07:05:09;7.00;;;4.20;;
29240;SDS011;16268;49.880;8.648;2023-05-20T07:07:34;7.85;;;4.55;;
29240;SDS011;16268;49.880;8.648;2023-05-20T07:10:00;7.35;;;4.65;;
29240;SDS011;16268;49.880;8.648;2023-05-20T07:12:29;8.95;;;4.03;;
29240;SDS011;16268;49.880;8.648;2023-05-20T07:14:55;6.43;;;3.75;;
29240;SDS011;16268;49.880;8.648;2023-05-20T07:17:20;8.10;;;4.30;;
29240;SDS011;16268;49.880;8.648;2023-05-20T07:19:46;8.18;;;4.20;;
29240;SDS011;16268;49.880;8.648;2023-05-20T07:22:12;6.20;;;4.18;;
29240;SDS011;16268;49.880;8.648;2023-05-20T07:24:37;8.13;;;4.18;;
29240;SDS011;16268;49.880;8.648;2023-05-20T07:27:03;7.57;;;4.38;;
29240;SDS011;16268;49.880;8.648;2023-05-20T07:29:28;7.35;;;4.30;;
29240;SDS011;16268;49.880;8.648;2023-05-20T07:31:54;6.38;;;4.25;;
29240;SDS011;16268;49.880;8.648;2023-05-20T07:34:19;7.75;;;4.25;;
29240;SDS011;16268;49.880;8.648;2023-05-20T07:36:46;6.20;;;4.10;;
29240;SDS011;16268;49.880;8.648;2023-05-20T07:39:13;8.38;;;4.13;;
29240;SDS011;16268;49.880;8.648;2023-05-20T07:41:39;6.88;;;3.90;;
29240;SDS011;16268;49.880;8.648;2023-05-20T07:44:06;7.47;;;3.70;;
29240;SDS011;16268;49.880;8.648;2023-05-20T07:46:35;6.63;;;4.00;;
29240;SDS011;16268;49.880;8.648;2023-05-20T07:49:02;7.30;;;4.00;;
29240;SDS011;16268;49.880;8.648;2023-05-20T07:51:28;7.28;;;4.15;;
29240;SDS011;16268;49.880;8.648;2023-05-20T07:53:53;6.57;;;4.35;;
29240;SDS011;16268;49.880;8.648;2023-05-20T07:56:19;8.20;;;4.13;;
29240;SDS011;16268;49.880;8.648;2023-05-20T07:58:51;6.55;;;3.97;;
29240;SDS011;16268;49.880;8.648;2023-05-20T08:01:18;6.25;;;4.00;;
29240;SDS011;16268;49.880;8.648;2023-05-20T08:03:44;7.25;;;3.75;;
29240;SDS011;16268;49.880;8.648;2023-05-20T08:06:10;8.93;;;4.47;;
29240;SDS011;16268;49.880;8.648;2023-05-20T08:08:36;7.20;;;3.90;;
29240;SDS011;16268;49.880;8.648;2023-05-20T08:11:01;6.50;;;4.22;;
29240;SDS011;16268;49.880;8.648;2023-05-20T08:13:28;6.65;;;4.30;;
29240;SDS011;16268;49.880;8.648;2023-05-20T08:15:53;8.90;;;4.22;;
29240;SDS011;16268;49.880;8.648;2023-05-20T08:18:19;6.65;;;4.10;;
29240;SDS011;16268;49.880;8.648;2023-05-20T08:20:45;6.38;;;4.28;;
29240;SDS011;16268;49.880;8.648;2023-05-20T08:23:10;6.07;;;4.10;;
29240;SDS011;16268;49.880;8.648;2023-05-20T08:25:36;6.40;;;4.05;;
29240;SDS011;16268;49.880;8.648;2023-05-20T08:28:04;6.63;;;4.10;;
29240;SDS011;16268;49.880;8.648;2023-05-20T08:30:31;6.53;;;4.18;;
29240;SDS011;16268;49.880;8.648;2023-05-20T08:32:57;7.03;;;4.03;;
29240;SDS011;16268;49.880;8.648;2023-05-20T08:35:23;6.38;;;4.15;;
29240;SDS011;16268;49.880;8.648;2023-05-20T08:37:49;6.25;;;4.20;;
29240;SDS011;16268;49.880;8.648;2023-05-20T08:40:15;7.25;;;3.90;;
29240;SDS011;16268;49.880;8.648;2023-05-20T08:42:41;7.32;;;4.63;;
29240;SDS011;16268;49.880;8.648;2023-05-20T08:45:10;8.70;;;4.30;;
29240;SDS011;16268;49.880;8.648;2023-05-20T08:47:38;6.20;;;3.80;;
29240;SDS011;16268;49.880;8.648;2023-05-20T08:50:07;7.97;;;4.68;;
29240;SDS011;16268;49.880;8.648;2023-05-20T08:52:34;6.68;;;4.03;;
29240;SDS011;16268;49.880;8.648;2023-05-20T08:55:02;6.10;;;4.30;;
29240;SDS011;16268;49.880;8.648;2023-05-20T08:59:58;6.43;;;4.30;;
29240;SDS011;16268;49.880;8.648;2023-05-20T09:02:24;7.45;;;4.28;;
29240;SDS011;16268;49.880;8.648;2023-05-20T09:04:49;9.52;;;4.40;;
29240;SDS011;16268;49.880;8.648;2023-05-20T09:07:28;6.75;;;4.10;;
29240;SDS011;16268;49.880;8.648;2023-05-20T09:09:54;6.00;;;4.20;;
29240;SDS011;16268;49.880;8.648;2023-05-20T09:12:20;5.97;;;4.30;;
29240;SDS011;16268;49.880;8.648;2023-05-20T09:14:45;9.82;;;5.03;;
29240;SDS011;16268;49.880;8.648;2023-05-20T09:17:11;6.03;;;4.15;;
29240;SDS011;16268;49.880;8.648;2023-05-20T09:19:37;7.40;;;4.68;;
29240;SDS011;16268;49.880;8.648;2023-05-20T09:22:03;7.05;;;4.80;;
29240;SDS011;16268;49.880;8.648;2023-05-20T09:24:29;8.13;;;4.88;;
29240;SDS011;16268;49.880;8.648;2023-05-20T09:26:55;10.18;;;5.00;;
29240;SDS011;16268;49.880;8.648;2023-05-20T09:29:22;6.70;;;4.90;;
29240;SDS011;16268;49.880;8.648;2023-05-20T09:31:48;6.68;;;4.90;;
29240;SDS011;16268;49.880;8.648;2023-05-20T09:34:15;6.63;;;4.60;;
29240;SDS011;16268;49.880;8.648;2023-05-20T09:36:41;8.00;;;4.85;;
29240;SDS011;16268;49.880;8.648;2023-05-20T09:39:11;6.88;;;4.55;;
29240;SDS011;16268;49.880;8.648;2023-05-20T09:44:09;7.07;;;4.57;;
29240;SDS011;16268;49.880;8.648;2023-05-20T09:46:35;6.80;;;4.40;;
29240;SDS011;16268;49.880;8.648;2023-05-20T09:49:02;8.75;;;4.85;;
29240;SDS011;16268;49.880;8.648;2023-05-20T09:51:28;7.93;;;4.78;;
29240;SDS011;16268;49.880;8.648;2023-05-20T09:53:56;7.28;;;4.70;;
29240;SDS011;16268;49.880;8.648;2023-05-20T09:56:22;7.70;;;4.85;;
29240;SDS011;16268;49.880;8.648;2023-05-20T09:58:49;6.20;;;4.85;;
29240;SDS011;16268;49.880;8.648;2023-05-20T10:01:17;6.85;;;4.90;;
29240;SDS011;16268;49.880;8.648;2023-05-20T10:03:42;7.18;;;4.80;;
29240;SDS011;16268;49.880;8.648;2023-05-20T10:06:14;5.93;;;4.43;;
29240;SDS011;16268;49.880;8.648;2023-05-20T10:11:47;6.32;;;4.50;;
29240;SDS011;16268;49.880;8.648;2023-05-20T10:17:34;9.63;;;4.60;;
29240;SDS011;16268;49.880;8.648;2023-05-20T10:20:08;7.25;;;4.53;;
29240;SDS011;16268;49.880;8.648;2023-05-20T10:22:36;7.10;;;4.75;;
29240;SDS011;16268;49.880;8.648;2023-05-20T10:25:03;6.50;;;4.35;;
29240;SDS011;16268;49.880;8.648;2023-05-20T10:28:07;6.25;;;4.93;;
29240;SDS011;16268;49.880;8.648;2023-05-20T10:30:28;6.85;;;4.63;;
29240;SDS011;16268;49.880;8.648;2023-05-20T10:32:56;8.25;;;4.65;;
29240;SDS011;16268;49.880;8.648;2023-05-20T10:35:24;7.70;;;4.97;;
29240;SDS011;16268;49.880;8.648;2023-05-20T10:37:51;7.95;;;5.57;;
29240;SDS011;16268;49.880;8.648;2023-05-20T10:40:19;9.77;;;5.53;;
29240;SDS011;16268;49.880;8.648;2023-05-20T10:42:46;7.63;;;5.25;;
29240;SDS011;16268;49.880;8.648;2023-05-20T10:45:23;8.77;;;5.20;;
29240;SDS011;16268;49.880;8.648;2023-05-20T10:47:53;8.95;;;5.10;;
29240;SDS011;16268;49.880;8.648;2023-05-20T10:50:27;7.82;;;4.90;;
29240;SDS011;16268;49.880;8.648;2023-05-20T10:53:05;8.88;;;4.97;;
29240;SDS011;16268;49.880;8.648;2023-05-20T10:55:36;7.95;;;4.88;;
29240;SDS011;16268;49.880;8.648;2023-05-20T10:58:02;7.40;;;5.60;;
29240;SDS011;16268;49.880;8.648;2023-05-20T11:00:29;8.75;;;5.97;;
29240;SDS011;16268;49.880;8.648;2023-05-20T11:02:55;7.32;;;5.28;;
29240;SDS011;16268;49.880;8.648;2023-05-20T11:05:21;6.68;;;5.03;;
29240;SDS011;16268;49.880;8.648;2023-05-20T11:07:47;6.90;;;4.95;;
29240;SDS011;16268;49.880;8.648;2023-05-20T11:10:12;6.90;;;4.95;;
29240;SDS011;16268;49.880;8.648;2023-05-20T11:12:38;6.47;;;4.55;;
29240;SDS011;16268;49.880;8.648;2023-05-20T11:15:04;7.18;;;5.13;;
29240;SDS011;16268;49.880;8.648;2023-05-20T11:17:29;6.95;;;4.80;;
29240;SDS011;16268;49.880;8.648;2023-05-20T11:19:55;7.47;;;5.35;;
29240;SDS011;16268;49.880;8.648;2023-05-20T11:22:24;8.98;;;5.47;;
29240;SDS011;16268;49.880;8.648;2023-05-20T11:24:50;8.05;;;5.10;;
29240;SDS011;16268;49.880;8.648;2023-05-20T11:27:22;8.95;;;5.30;;
29240;SDS011;16268;49.880;8.648;2023-05-20T11:29:48;7.90;;;5.13;;
29240;SDS011;16268;49.880;8.648;2023-05-20T11:32:14;7.05;;;5.15;;
29240;SDS011;16268;49.880;8.648;2023-05-20T11:34:43;6.82;;;5.18;;
29240;SDS011;16268;49.880;8.648;2023-05-20T11:37:08;8.02;;;5.22;;
29240;SDS011;16268;49.880;8.648;2023-05-20T11:39:35;8.20;;;5.53;;
29240;SDS011;16268;49.880;8.648;2023-05-20T11:42:01;8.27;;;5.25;;
29240;SDS011;16268;49.880;8.648;2023-05-20T11:44:27;6.35;;;5.00;;
29240;SDS011;16268;49.880;8.648;2023-05-20T11:46:58;7.45;;;4.88;;
29240;SDS011;16268;49.880;8.648;2023-05-20T11:49:25;7.88;;;5.28;;
29240;SDS011;16268;49.880;8.648;2023-05-20T11:51:50;7.65;;;5.45;;
29240;SDS011;16268;49.880;8.648;2023-05-20T11:54:16;7.80;;;5.78;;
29240;SDS011;16268;49.880;8.648;2023-05-20T11:56:41;8.18;;;5.28;;
29240;SDS011;16268;49.880;8.648;2023-05-20T11:59:09;7.60;;;5.60;;
29240;SDS011;16268;49.880;8.648;2023-05-20T12:01:36;7.65;;;5.57;;
29240;SDS011;16268;49.880;8.648;2023-05-20T12:04:06;6.85;;;5.45;;
29240;SDS011;16268;49.880;8.648;2023-05-20T12:06:32;9.15;;;6.20;;
29240;SDS011;16268;49.880;8.648;2023-05-20T12:09:02;10.57;;;6.32;;
29240;SDS011;16268;49.880;8.648;2023-05-20T12:11:36;6.93;;;5.38;;
29240;SDS011;16268;49.880;8.648;2023-05-20T12:14:03;7.43;;;5.57;;
29240;SDS011;16268;49.880;8.648;2023-05-20T12:16:30;7.40;;;5.65;;
29240;SDS011;16268;49.880;8.648;2023-05-20T12:18:57;7.95;;;5.03;;
29240;SDS011;16268;49.880;8.648;2023-05-20T12:21:22;8.18;;;5.60;;
29240;SDS011;16268;49.880;8.648;2023-05-20T12:23:48;8.50;;;5.68;;
29240;SDS011;16268;49.880;8.648;2023-05-20T12:26:13;7.18;;;5.30;;
29240;SDS011;16268;49.880;8.648;2023-05-20T12:28:39;8.60;;;5.93;;
29240;SDS011;16268;49.880;8.648;2023-05-20T12:31:05;7.40;;;5.15;;
29240;SDS011;16268;49.880;8.648;2023-05-20T12:33:30;10.18;;;5.75;;
29240;SDS011;16268;49.880;8.648;2023-05-20T12:35:56;7.30;;;5.53;;
29240;SDS011;16268;49.880;8.648;2023-05-20T12:38:21;8.15;;;5.45;;
29240;SDS011;16268;49.880;8.648;2023-05-20T12:40:47;7.93;;;5.70;;
29240;SDS011;16268;49.880;8.648;2023-05-20T12:43:12;9.80;;;5.97;;
29240;SDS011;16268;49.880;8.648;2023-05-20T12:45:38;10.18;;;6.03;;
29240;SDS011;16268;49.880;8.648;2023-05-20T12:48:04;8.07;;;6.20;;
29240;SDS011;16268;49.880;8.648;2023-05-20T12:50:31;8.00;;;5.63;;
29240;SDS011;16268;49.880;8.648;2023-05-20T12:52:57;8.02;;;5.65;;
29240;SDS011;16268;49.880;8.648;2023-05-20T12:55:22;9.60;;;6.05;;
29240;SDS011;16268;49.880;8.648;2023-05-20T12:57:48;8.05;;;5.75;;
29240;SDS011;16268;49.880;8.648;2023-05-20T13:03:36;9.70;;;6.03;;
29240;SDS011;16268;49.880;8.648;2023-05-20T13:06:02;11.13;;;6.00;;
29240;SDS011;16268;49.880;8.648;2023-05-20T13:08:28;8.43;;;6.25;;
29240;SDS011;16268;49.880;8.648;2023-05-20T13:10:53;9.90;;;6.47;;
29240;SDS011;16268;49.880;8.648;2023-05-20T13:13:19;9.68;;;6.43;;
29240;SDS011;16268;49.880;8.648;2023-05-20T13:15:48;8.52;;;6.00;;
29240;SDS011;16268;49.880;8.648;2023-05-20T13:18:14;8.50;;;6.53;;
29240;SDS011;16268;49.880;8.648;2023-05-20T13:20:44;8.38;;;6.30;;
29240;SDS011;16268;49.880;8.648;2023-05-20T13:23:09;8.70;;;6.25;;
29240;SDS011;16268;49.880;8.648;2023-05-20T13:25:35;10.93;;;6.18;;
29240;SDS011;16268;49.880;8.648;2023-05-20T13:28:01;10.57;;;6.20;;
29240;SDS011;16268;49.880;8.648;2023-05-20T13:30:27;12.05;;;6.70;;
29240;SDS011;16268;49.880;8.648;2023-05-20T13:32:52;8.75;;;6.22;;
29240;SDS011;16268;49.880;8.648;2023-05-20T13:35:18;11.50;;;6.32;;
29240;SDS011;16268;49.880;8.648;2023-05-20T13:37:44;8.77;;;6.63;;
29240;SDS011;16268;49.880;8.648;2023-05-20T13:40:10;9.82;;;6.53;;
29240;SDS011;16268;49.880;8.648;2023-05-20T13:42:36;9.80;;;6.63;;
29240;SDS011;16268;49.880;8.648;2023-05-20T13:45:02;9.02;;;6.93;;
29240;SDS011;16268;49.880;8.648;2023-05-20T13:47:27;10.07;;;6.60;;
29240;SDS011;16268;49.880;8.648;2023-05-20T13:49:53;7.57;;;6.00;;
29240;SDS011;16268;49.880;8.648;2023-05-20T13:52:18;8.70;;;5.78;;
29240;SDS011;16268;49.880;8.648;2023-05-20T13:54:44;7.63;;;6.25;;
29240;SDS011;16268;49.880;8.648;2023-05-20T13:57:11;7.85;;;5.88;;
29240;SDS011;16268;49.880;8.648;2023-05-20T13:59:37;11.05;;;7.75;;
29240;SDS011;16268;49.880;8.648;2023-05-20T14:02:02;8.75;;;5.78;;
29240;SDS011;16268;49.880;8.648;2023-05-20T14:04:28;9.32;;;7.03;;
29240;SDS011;16268;49.880;8.648;2023-05-20T14:06:55;8.82;;;6.57;;
29240;SDS011;16268;49.880;8.648;2023-05-20T14:09:20;12.18;;;6.95;;
29240;SDS011;16268;49.880;8.648;2023-05-20T14:11:46;9.75;;;7.10;;
29240;SDS011;16268;49.880;8.648;2023-05-20T14:14:12;8.65;;;6.75;;
29240;SDS011;16268;49.880;8.648;2023-05-20T14:16:37;9.65;;;6.90;;
29240;SDS011;16268;49.880;8.648;2023-05-20T14:19:03;10.43;;;6.72;;
29240;SDS011;16268;49.880;8.648;2023-05-20T14:21:29;9.30;;;6.80;;
29240;SDS011;16268;49.880;8.648;2023-05-20T14:23:56;10.27;;;6.55;;
29240;SDS011;16268;49.880;8.648;2023-05-20T14:26:22;8.88;;;7.07;;
29240;SDS011;16268;49.880;8.648;2023-05-20T14:28:48;12.20;;;6.95;;
29240;SDS011;16268;49.880;8.648;2023-05-20T14:31:14;10.57;;;6.93;;
29240;SDS011;16268;49.880;8.648;2023-05-20T14:33:39;10.60;;;7.03;;
29240;SDS011;16268;49.880;8.648;2023-05-20T14:36:05;11.43;;;7.30;;
29240;SDS011;16268;49.880;8.648;2023-05-20T14:38:31;9.50;;;6.85;;
29240;SDS011;16268;49.880;8.648;2023-05-20T14:40:56;9.60;;;7.68;;
29240;SDS011;16268;49.880;8.648;2023-05-20T14:43:22;8.73;;;6.65;;
29240;SDS011;16268;49.880;8.648;2023-05-20T14:45:47;12.45;;;7.25;;
29240;SDS011;16268;49.880;8.648;2023-05-20T14:48:13;9.60;;;7.72;;
29240;SDS011;16268;49.880;8.648;2023-05-20T14:50:39;8.55;;;7.13;;
29240;SDS011;16268;49.880;8.648;2023-05-20T14:53:04;8.25;;;6.68;;
29240;SDS011;16268;49.880;8.648;2023-05-20T14:55:30;9.20;;;7.03;;
29240;SDS011;16268;49.880;8.648;2023-05-20T14:57:55;10.38;;;7.00;;
29240;SDS011;16268;49.880;8.648;2023-05-20T15:00:21;11.75;;;7.47;;